Time;durP1;ratioP1;P1;durP2;ratioP2;P2;SDS_P1;SDS_P2;PMS_P1;PMS_P2;Temp;Humidity;BMP_temperature;BMP_pressure;BME280_temperature;BME280_humidity;BME280_pressure;Samples;Min_cycle;Max_cycle;Signal;HPM_P1;HPM_P2
2022/10/02 00:02:25;;;;;;;1999.90;999.90;;;14.70;99.90;;;;;;5012018;28;20414;-68
2022/10/02 00:04:58;;;;;;;1999.90;999.90;;;14.70;99.90;;;;;;5012115;28;20413;-68
2022/10/02 00:07:33;;;;;;;1999.90;999.90;;;14.60;99.90;;;;;;5012299;28;20447;-68
2022/10/02 00:10:05;;;;;;;1999.90;999.90;;;14.70;99.90;;;;;;5012272;28;20444;-68
2022/10/02 00:12:33;;;;;;;1999.90;999.90;;;14.70;99.90;;;;;;5012071;28;20508;-67
2022/10/02 00:15:12;;;;;;;1999.90;999.90;;;14.70;99.90;;;;;;5011955;28;20456;-68
2022/10/02 00:17:43;;;;;;;1999.90;999.90;;;14.80;99.90;;;;;;5012142;28;20420;-67
2022/10/02 00:20:15;;;;;;;1999.90;999.90;;;14.80;99.90;;;;;;5012132;28;20410;-68
2022/10/02 00:23:00;;;;;;;1999.90;999.90;;;14.80;99.90;;;;;;5012112;28;20531;-68
2022/10/02 00:25:38;;;;;;;1999.90;999.90;;;14.80;99.90;;;;;;5016192;28;20900;-68
2022/10/02 00:28:22;;;;;;;1999.90;999.90;;;14.80;99.90;;;;;;5016148;28;20399;-69
2022/10/02 00:30:54;;;;;;;1999.90;999.90;;;14.80;99.90;;;;;;5016920;28;20408;-68
2022/10/02 00:33:22;;;;;;;1999.90;999.90;;;14.70;99.90;;;;;;5016028;28;20457;-68
2022/10/02 00:36:28;;;;;;;1999.90;999.90;;;14.80;99.90;;;;;;5015961;28;20430;-68
2022/10/02 00:39:32;;;;;;;1999.90;999.90;;;14.80;99.90;;;;;;5004697;28;20425;-68
2022/10/02 00:42:28;;;;;;;1999.90;999.90;;;14.80;99.90;;;;;;5015791;28;20435;-68
2022/10/02 00:45:00;;;;;;;1999.90;999.90;;;14.80;99.90;;;;;;5016665;28;20398;-69
2022/10/02 00:47:48;;;;;;;1999.90;999.90;;;14.80;99.90;;;;;;5015861;28;20417;-68
2022/10/02 00:50:45;;;;;;;1999.90;999.90;;;14.80;99.90;;;;;;5016375;28;20410;-68
2022/10/02 00:53:14;;;;;;;1999.90;999.90;;;14.80;99.90;;;;;;5015589;28;20955;-68
2022/10/02 00:56:10;;;;;;;1999.90;999.90;;;14.90;99.90;;;;;;5015909;28;20433;-68
2022/10/02 00:58:56;;;;;;;1999.90;999.90;;;14.80;99.90;;;;;;5015821;28;20773;-68
2022/10/02 01:01:28;;;;;;;1999.90;999.90;;;14.80;99.90;;;;;;4984924;28;20404;-67
2022/10/02 01:03:55;;;;;;;1999.90;999.90;;;14.80;99.90;;;;;;5015434;28;20915;-68
2022/10/02 01:06:26;;;;;;;1999.90;999.90;;;14.90;99.90;;;;;;5014700;28;20865;-69
2022/10/02 01:08:51;;;;;;;1999.90;999.90;;;14.90;99.90;;;;;;5014655;28;20458;-68
2022/10/02 01:11:18;;;;;;;1999.90;999.90;;;14.80;99.90;;;;;;5014751;28;20914;-68
2022/10/02 01:13:44;;;;;;;1999.90;999.90;;;14.80;99.90;;;;;;5014847;28;20227;-68
2022/10/02 01:16:12;;;;;;;1999.90;999.90;;;14.80;99.90;;;;;;5014735;28;20435;-67
2022/10/02 01:18:39;;;;;;;1999.90;999.90;;;14.80;99.90;;;;;;5014867;28;20166;-68
2022/10/02 01:21:12;;;;;;;1999.90;999.90;;;14.80;99.90;;;;;;5015236;28;20409;-68
2022/10/02 01:24:07;;;;;;;1999.90;999.90;;;14.80;99.90;;;;;;5015136;28;20415;-67
2022/10/02 01:26:33;;;;;;;1999.90;999.90;;;14.80;99.90;;;;;;5014783;28;20444;-68
2022/10/02 01:28:58;;;;;;;1999.90;999.90;;;14.90;99.90;;;;;;5014875;28;20412;-68
2022/10/02 01:31:24;;;;;;;1999.90;999.90;;;14.90;99.90;;;;;;5014860;28;20547;-68
2022/10/02 01:33:51;;;;;;;1999.90;999.90;;;15.00;99.90;;;;;;5014064;28;20205;-68
2022/10/02 01:36:17;;;;;;;1999.90;999.90;;;15.00;99.90;;;;;;5014774;28;20192;-68
2022/10/02 01:38:44;;;;;;;1999.90;999.90;;;15.00;99.90;;;;;;5015776;28;20404;-68
2022/10/02 01:41:10;;;;;;;1999.90;999.90;;;15.00;99.90;;;;;;5015998;28;20451;-68
2022/10/02 01:43:44;;;;;;;1999.90;999.90;;;15.10;99.90;;;;;;5015317;28;20417;-68
2022/10/02 01:46:18;;;;;;;1999.90;999.90;;;15.10;99.90;;;;;;5014956;28;20224;-68
2022/10/02 01:48:45;;;;;;;1999.90;999.90;;;15.10;99.90;;;;;;5016051;28;20492;-68
2022/10/02 01:51:34;;;;;;;1999.90;999.90;;;15.10;99.90;;;;;;5015371;28;20823;-68
2022/10/02 01:54:40;;;;;;;1999.90;999.90;;;15.10;99.90;;;;;;5015213;28;20502;-68
2022/10/02 01:57:25;;;;;;;1999.90;999.90;;;15.20;99.90;;;;;;5014740;28;20452;-68
2022/10/02 02:00:08;;;;;;;1999.90;999.90;;;15.20;99.90;;;;;;5014040;28;20529;-68
2022/10/02 02:02:56;;;;;;;1999.90;999.90;;;15.20;99.90;;;;;;5014484;28;20410;-68
2022/10/02 02:05:39;;;;;;;1999.90;999.90;;;15.20;99.90;;;;;;5013754;28;20405;-68
2022/10/02 02:08:12;;;;;;;1999.90;999.90;;;15.30;99.90;;;;;;5014960;28;20782;-68
2022/10/02 02:11:01;;;;;;;1999.90;999.90;;;15.20;99.90;;;;;;5015443;28;20411;-69
2022/10/02 02:13:45;;;;;;;1999.90;999.90;;;15.20;99.90;;;;;;5014647;28;20799;-68
2022/10/02 02:16:30;;;;;;;1999.90;999.90;;;15.30;99.90;;;;;;5014171;28;20428;-68
2022/10/02 02:19:21;;;;;;;1999.90;999.90;;;15.30;99.90;;;;;;5013937;28;20407;-68
2022/10/02 02:22:06;;;;;;;1999.90;999.90;;;15.30;99.90;;;;;;5014150;28;20425;-68
2022/10/02 02:24:38;;;;;;;1999.90;999.90;;;15.20;99.90;;;;;;5029928;28;20908;-68
2022/10/02 02:27:06;;;;;;;1999.90;999.90;;;15.20;99.90;;;;;;5033333;28;20932;-68
2022/10/02 02:29:35;;;;;;;1999.90;999.90;;;15.20;99.90;;;;;;5033910;28;20462;-68
2022/10/02 02:32:05;;;;;;;1999.90;999.90;;;15.20;99.90;;;;;;5033673;28;21096;-68
2022/10/02 02:34:40;;;;;;;1999.90;999.90;;;15.20;99.90;;;;;;5033659;28;20410;-68
2022/10/02 02:37:18;;;;;;;1999.90;999.90;;;15.20;99.90;;;;;;5033443;28;20795;-68
2022/10/02 02:39:49;;;;;;;1999.90;999.90;;;15.20;99.90;;;;;;5033226;28;20903;-68
2022/10/02 02:42:21;;;;;;;1999.90;999.90;;;15.30;99.90;;;;;;5033508;28;20526;-69
2022/10/02 02:45:02;;;;;;;1999.90;999.90;;;15.30;99.90;;;;;;5033512;28;20409;-68
2022/10/02 02:47:39;;;;;;;1999.90;999.90;;;15.30;99.90;;;;;;5032593;28;20433;-68
2022/10/02 02:50:11;;;;;;;1999.90;999.90;;;15.30;99.90;;;;;;5032697;28;20433;-68
2022/10/02 02:52:44;;;;;;;1999.90;999.90;;;15.20;99.90;;;;;;5032751;28;20928;-68
2022/10/02 02:55:18;;;;;;;1999.90;999.90;;;15.30;99.90;;;;;;5032888;28;20490;-68
2022/10/02 02:58:12;;;;;;;1999.90;999.90;;;15.30;99.90;;;;;;5032283;28;20422;-67
2022/10/02 03:00:38;;;;;;;1999.90;999.90;;;15.30;99.90;;;;;;5032716;28;20416;-68
2022/10/02 03:03:04;;;;;;;1999.90;999.90;;;15.30;99.90;;;;;;5032590;28;20407;-68
2022/10/02 03:05:30;;;;;;;1999.90;999.90;;;15.40;99.90;;;;;;5032443;28;20220;-68
2022/10/02 03:08:02;;;;;;;1999.90;999.90;;;15.40;99.90;;;;;;5032387;28;20412;-67
2022/10/02 03:10:59;;;;;;;1999.90;999.90;;;15.40;99.90;;;;;;5033150;28;21087;-68
2022/10/02 03:13:35;;;;;;;1999.90;999.90;;;15.40;99.90;;;;;;5032201;28;20814;-68
2022/10/02 03:16:04;;;;;;;1999.90;999.90;;;15.50;99.90;;;;;;5032355;28;20426;-68
2022/10/02 03:18:44;;;;;;;1999.90;999.90;;;15.50;99.90;;;;;;5032233;28;20410;-68
2022/10/02 03:21:19;;;;;;;1999.90;999.90;;;15.50;99.90;;;;;;5032341;28;20409;-68
2022/10/02 03:23:50;;;;;;;1999.90;999.90;;;15.50;99.90;;;;;;5032168;28;20394;-68
2022/10/02 03:26:28;;;;;;;1999.90;999.90;;;15.60;99.90;;;;;;5032346;28;20428;-68
2022/10/02 03:28:56;;;;;;;1999.90;999.90;;;15.50;99.90;;;;;;5034654;28;20926;-67
2022/10/02 03:31:24;;;;;;;1999.90;999.90;;;15.50;99.90;;;;;;5032404;28;20415;-68
2022/10/02 03:33:52;;;;;;;1999.90;999.90;;;15.30;99.90;;;;;;5032601;28;20935;-67
2022/10/02 03:36:19;;;;;;;1999.90;999.90;;;15.20;99.90;;;;;;5032398;28;20475;-67
2022/10/02 03:38:46;;;;;;;1999.90;999.90;;;15.10;99.90;;;;;;5033317;28;20422;-67
2022/10/02 03:41:12;;;;;;;1999.90;999.90;;;14.90;99.90;;;;;;5033138;28;20968;-66
2022/10/02 03:43:38;;;;;;;1999.90;999.90;;;14.80;99.90;;;;;;5031994;28;20414;-66
2022/10/02 03:46:04;;;;;;;1999.90;999.90;;;14.70;99.90;;;;;;5031747;28;20490;-67
2022/10/02 03:48:29;;;;;;;1999.90;999.90;;;14.60;99.90;;;;;;5031723;28;20189;-66
2022/10/02 03:50:55;;;;;;;1999.90;999.90;;;14.60;99.90;;;;;;5031852;28;20169;-66
2022/10/02 03:53:28;;;;;;;1999.90;999.90;;;14.60;99.90;;;;;;5032131;28;20233;-67
2022/10/02 03:55:58;;;;;;;1999.90;999.90;;;14.60;99.90;;;;;;5031684;28;20188;-67
2022/10/02 03:58:24;;;;;;;1999.90;999.90;;;14.50;99.90;;;;;;5034925;28;20404;-67
2022/10/02 04:01:02;;;;;;;1999.90;999.90;;;14.60;99.90;;;;;;5036517;28;20410;-67
2022/10/02 04:04:00;;;;;;;1999.90;999.90;;;14.60;99.90;;;;;;5036581;28;20641;-67
2022/10/02 04:06:43;;;;;;;1999.90;999.90;;;14.60;99.90;;;;;;5011709;28;20453;-67
2022/10/02 04:09:24;;;;;;;1999.90;999.90;;;14.50;99.90;;;;;;5036293;28;20403;-67
2022/10/02 04:12:06;;;;;;;1999.90;999.90;;;14.50;99.90;;;;;;5036557;28;20509;-67
2022/10/02 04:14:42;;;;;;;1999.90;999.90;;;14.50;99.90;;;;;;5036611;28;20440;-67
2022/10/02 04:17:14;;;;;;;1999.90;999.90;;;14.40;99.90;;;;;;5036020;28;20439;-66
2022/10/02 04:19:45;;;;;;;1999.90;999.90;;;14.50;99.90;;;;;;5035469;28;20398;-66
2022/10/02 04:22:20;;;;;;;1999.90;999.90;;;14.50;99.90;;;;;;5035369;28;20796;-66
2022/10/02 04:24:56;;;;;;;1999.90;999.90;;;14.50;99.90;;;;;;5035373;28;20829;-66
2022/10/02 04:28:00;;;;;;;1999.90;999.90;;;14.50;99.90;;;;;;5034894;28;20921;-66
2022/10/02 04:30:26;;;;;;;1999.90;999.90;;;14.50;99.90;;;;;;5035174;28;20400;-66
2022/10/02 04:32:52;;;;;;;1999.90;999.90;;;14.50;99.90;;;;;;5035141;28;20441;-67
2022/10/02 04:35:26;;;;;;;1999.90;999.90;;;14.50;99.90;;;;;;5035125;28;20172;-66
2022/10/02 04:38:01;;;;;;;1999.90;999.90;;;14.50;99.90;;;;;;5034818;28;20423;-66
2022/10/02 04:40:37;;;;;;;1999.90;999.90;;;14.50;99.90;;;;;;5035153;28;20847;-67
2022/10/02 04:43:15;;;;;;;1999.90;999.90;;;14.50;99.90;;;;;;5034995;28;20807;-67
2022/10/02 04:45:57;;;;;;;1999.90;999.90;;;14.50;99.90;;;;;;5034847;28;20408;-66
2022/10/02 04:48:32;;;;;;;1999.90;999.90;;;14.50;99.90;;;;;;5034917;28;20420;-66
2022/10/02 04:51:10;;;;;;;1999.90;999.90;;;14.50;99.90;;;;;;5034879;28;20910;-66
2022/10/02 04:54:06;;;;;;;1999.90;999.90;;;14.50;99.90;;;;;;5034604;28;20456;-66
2022/10/02 04:56:56;;;;;;;1999.90;999.90;;;14.40;99.90;;;;;;5034483;28;20416;-66
2022/10/02 05:00:02;;;;;;;1999.90;999.90;;;14.50;99.90;;;;;;5034627;28;20394;-66
2022/10/02 05:02:33;;;;;;;1999.90;999.90;;;14.50;99.90;;;;;;5032439;28;20426;-67
2022/10/02 05:05:17;;;;;;;1999.90;999.90;;;14.50;99.90;;;;;;5034572;28;20973;-67
2022/10/02 05:08:17;;;;;;;1999.90;999.90;;;14.40;99.90;;;;;;5034090;28;20966;-67
2022/10/02 05:10:55;;;;;;;1999.90;999.90;;;14.50;99.90;;;;;;5033910;28;20403;-66
2022/10/02 05:13:39;;;;;;;1999.90;999.90;;;14.40;99.90;;;;;;5035280;28;20592;-67
2022/10/02 05:16:25;;;;;;;1999.90;999.90;;;14.40;99.90;;;;;;5035405;28;20415;-67
2022/10/02 05:19:09;;;;;;;1999.90;999.90;;;14.40;99.90;;;;;;5034416;28;20457;-67
2022/10/02 05:21:58;;;;;;;1999.90;999.90;;;14.40;99.90;;;;;;5034883;28;20428;-66
2022/10/02 05:24:45;;;;;;;1999.90;999.90;;;14.30;99.90;;;;;;5034756;28;20507;-66
2022/10/02 05:27:19;;;;;;;1999.90;999.90;;;14.30;99.90;;;;;;5035107;28;20437;-66
2022/10/02 05:30:08;;;;;;;1999.90;999.90;;;14.30;99.90;;;;;;5035144;28;20413;-66
2022/10/02 05:32:43;;;;;;;1999.90;999.90;;;14.30;99.90;;;;;;5035124;28;20458;-67
2022/10/02 05:35:38;;;;;;;1999.90;999.90;;;14.30;99.90;;;;;;5034824;28;20396;-66
2022/10/02 05:38:18;;;;;;;1999.90;999.90;;;14.30;99.90;;;;;;5034287;28;20403;-67
2022/10/02 05:40:49;;;;;;;1999.90;999.90;;;14.20;99.90;;;;;;5034771;28;20462;-66
2022/10/02 05:43:26;;;;;;;1999.90;999.90;;;14.20;99.90;;;;;;5035064;28;20783;-66
2022/10/02 05:45:57;;;;;;;1999.90;999.90;;;14.20;99.90;;;;;;5034750;28;20473;-66
2022/10/02 05:48:31;;;;;;;1999.90;999.90;;;14.20;99.90;;;;;;5034524;28;20403;-66
2022/10/02 05:51:17;;;;;;;1999.90;999.90;;;14.20;99.90;;;;;;5034889;28;20409;-67
2022/10/02 05:53:52;;;;;;;1999.90;999.90;;;14.20;99.90;;;;;;5034240;28;20450;-67
2022/10/02 05:56:26;;;;;;;1999.90;999.90;;;14.20;99.90;;;;;;5034430;28;20427;-67
2022/10/02 05:59:07;;;;;;;1999.90;999.90;;;14.20;99.90;;;;;;5033806;28;20481;-66
2022/10/02 06:01:40;;;;;;;1999.90;999.90;;;14.20;99.90;;;;;;5033625;28;20452;-66
2022/10/02 06:04:25;;;;;;;1999.90;999.90;;;14.20;99.90;;;;;;5033609;28;20412;-67
2022/10/02 06:06:55;;;;;;;1999.90;999.90;;;14.20;99.90;;;;;;5033125;28;20493;-67
2022/10/02 06:09:23;;;;;;;1999.90;999.90;;;14.30;99.90;;;;;;5033939;28;20435;-66
2022/10/02 06:12:18;;;;;;;1999.90;999.90;;;14.30;99.90;;;;;;5033642;28;20405;-66
2022/10/02 06:14:51;;;;;;;1999.90;999.90;;;14.30;99.90;;;;;;5033771;28;20415;-67
2022/10/02 06:17:30;;;;;;;1999.90;999.90;;;14.30;99.90;;;;;;5033040;28;20839;-66
2022/10/02 06:20:31;;;;;;;1999.90;999.90;;;14.30;99.90;;;;;;5033613;28;20930;-67
2022/10/02 06:23:18;;;;;;;1999.90;999.90;;;14.30;99.90;;;;;;5033463;28;20403;-66
2022/10/02 06:26:20;;;;;;;1999.90;999.90;;;14.30;99.90;;;;;;5032950;28;20437;-66
2022/10/02 06:28:54;;;;;;;1999.90;999.90;;;14.30;99.90;;;;;;4971897;28;20461;-67
2022/10/02 06:31:37;;;;;;;1999.90;999.90;;;14.20;99.90;;;;;;5024420;28;20453;-67
2022/10/02 06:34:02;;;;;;;1999.90;999.90;;;14.20;99.90;;;;;;5033326;28;20450;-66
2022/10/02 06:36:43;;;;;;;1999.90;999.90;;;14.20;99.90;;;;;;5033256;28;20508;-66
2022/10/02 06:39:14;;;;;;;1999.90;999.90;;;14.20;99.90;;;;;;5033171;28;20569;-66
2022/10/02 06:41:53;;;;;;;1999.90;999.90;;;14.10;99.90;;;;;;5005210;28;20414;-67
2022/10/02 06:44:38;;;;;;;1999.90;999.90;;;14.10;99.90;;;;;;4993642;28;20847;-66
2022/10/02 06:47:24;;;;;;;1999.90;999.90;;;14.10;99.90;;;;;;4993145;28;20849;-66
2022/10/02 06:50:18;;;;;;;1999.90;999.90;;;14.00;99.90;;;;;;4993919;28;20407;-66
2022/10/02 06:53:21;;;;;;;1999.90;999.90;;;14.00;99.90;;;;;;4994071;28;20465;-66
2022/10/02 06:56:21;;;;;;;1999.90;999.90;;;14.00;99.90;;;;;;4993566;28;20403;-67
2022/10/02 06:58:54;;;;;;;1999.90;999.90;;;14.00;99.90;;;;;;4990090;28;20502;-67
2022/10/02 07:01:32;;;;;;;1999.90;999.90;;;14.00;99.90;;;;;;4993600;28;20402;-67
2022/10/02 07:04:11;;;;;;;1999.90;999.90;;;14.00;99.90;;;;;;4993295;28;20407;-67
2022/10/02 07:07:07;;;;;;;1999.90;999.90;;;14.00;99.90;;;;;;4992931;28;20551;-67
2022/10/02 07:09:49;;;;;;;1999.90;999.90;;;14.00;99.90;;;;;;4993492;28;20417;-67
2022/10/02 07:12:39;;;;;;;1999.90;999.90;;;14.00;99.90;;;;;;4993388;28;20399;-67
2022/10/02 07:15:38;;;;;;;1999.90;999.90;;;14.00;99.90;;;;;;4993391;28;20402;-67
2022/10/02 07:18:18;;;;;;;1999.90;999.90;;;14.00;99.90;;;;;;4992963;28;20486;-67
2022/10/02 07:21:02;;;;;;;1999.90;999.90;;;14.00;99.90;;;;;;4993241;28;20400;-67
2022/10/02 07:23:43;;;;;;;1999.90;999.90;;;14.10;99.90;;;;;;4992884;28;20401;-67
2022/10/02 07:26:30;;;;;;;1999.90;999.90;;;14.10;99.90;;;;;;4993048;28;20947;-67
2022/10/02 07:29:06;;;;;;;1999.90;999.90;;;14.10;99.90;;;;;;4993268;28;20401;-67
2022/10/02 07:31:48;;;;;;;1999.90;999.90;;;14.20;99.90;;;;;;4992883;28;20525;-67
2022/10/02 07:34:31;;;;;;;1999.90;999.90;;;14.30;99.90;;;;;;4992908;28;20476;-67
2022/10/02 07:37:29;;;;;;;1999.90;999.90;;;14.30;99.90;;;;;;4992756;28;20421;-67
2022/10/02 07:40:09;;;;;;;1999.90;999.90;;;14.30;99.90;;;;;;4992712;28;20397;-67
2022/10/02 07:42:46;;;;;;;1999.90;999.90;;;14.40;99.90;;;;;;4992703;28;20400;-67
2022/10/02 07:45:43;;;;;;;1999.90;999.90;;;14.50;99.90;;;;;;4994082;28;20415;-67
2022/10/02 07:48:39;;;;;;;1999.90;999.90;;;14.40;99.90;;;;;;4993450;28;20475;-67
2022/10/02 07:54:14;;;;;;;1999.90;999.90;;;14.50;99.90;;;;;;4994992;28;20525;-67
2022/10/02 07:56:41;;;;;;;1999.90;999.90;;;14.40;99.90;;;;;;4994798;28;20425;-67
2022/10/02 07:59:15;;;;;;;1999.90;999.90;;;14.40;99.90;;;;;;4994837;28;20913;-67
2022/10/02 08:01:41;;;;;;;1999.90;999.90;;;14.50;99.90;;;;;;4995153;28;20815;-67
2022/10/02 08:04:29;;;;;;;1999.90;999.90;;;14.50;99.90;;;;;;4994450;28;20488;-67
2022/10/02 08:07:02;;;;;;;1999.90;999.90;;;14.60;99.90;;;;;;4994553;28;20822;-66
2022/10/02 08:09:41;;;;;;;1999.90;999.90;;;14.70;99.90;;;;;;4994336;28;20408;-67
2022/10/02 08:12:09;;;;;;;1999.90;999.90;;;14.70;99.90;;;;;;4993816;28;20505;-67
2022/10/02 08:14:39;;;;;;;1999.90;999.90;;;14.70;99.90;;;;;;4993780;28;20424;-67
2022/10/02 08:17:32;;;;;;;1999.90;999.90;;;14.70;99.90;;;;;;4993611;28;20421;-68
2022/10/02 08:20:12;;;;;;;1999.90;999.90;;;14.90;99.90;;;;;;4993466;28;20399;-67
2022/10/02 08:22:45;;;;;;;1999.90;999.90;;;14.90;99.90;;;;;;4992724;28;20408;-67
2022/10/02 08:25:32;;;;;;;1999.90;999.90;;;15.00;99.90;;;;;;4992644;28;20405;-68
2022/10/02 08:28:02;;;;;;;1999.90;999.90;;;15.00;99.90;;;;;;4992267;28;20401;-67
2022/10/02 08:30:28;;;;;;;1999.90;999.90;;;15.00;99.90;;;;;;4993887;28;20420;-67
2022/10/02 08:32:53;;;;;;;1999.90;999.90;;;15.00;99.90;;;;;;4992637;28;20454;-67
2022/10/02 08:35:20;;;;;;;1999.90;999.90;;;15.10;99.90;;;;;;4992393;28;20173;-67
2022/10/02 08:37:59;;;;;;;1999.90;999.90;;;15.10;99.90;;;;;;4993996;28;20255;-67
2022/10/02 08:40:25;;;;;;;1999.90;999.90;;;15.20;99.90;;;;;;4992787;28;20419;-67
2022/10/02 08:43:03;;;;;;;1999.90;999.90;;;15.30;99.90;;;;;;4992280;28;20798;-67
2022/10/02 08:45:38;;;;;;;1999.90;999.90;;;15.30;99.90;;;;;;4994714;28;20222;-68
2022/10/02 08:48:38;;;;;;;1999.90;999.90;;;15.40;99.90;;;;;;4995952;28;20457;-67
2022/10/02 08:51:25;;;;;;;1999.90;999.90;;;15.40;99.90;;;;;;4995751;28;20830;-67
2022/10/02 08:54:15;;;;;;;1999.90;999.90;;;15.40;99.90;;;;;;4996098;28;20818;-67
2022/10/02 08:56:57;;;;;;;1999.90;999.90;;;15.40;99.90;;;;;;4995214;28;20423;-68
2022/10/02 08:59:24;;;;;;;1999.90;999.90;;;15.50;99.90;;;;;;4995953;28;20510;-67
2022/10/02 09:01:50;;;;;;;1999.90;999.90;;;15.50;99.90;;;;;;4995910;28;20409;-67
2022/10/02 09:04:18;;;;;;;1999.90;999.90;;;15.70;99.90;;;;;;4995541;28;20433;-68
2022/10/02 09:07:07;;;;;;;1999.90;999.90;;;15.80;99.90;;;;;;4995349;28;20208;-67
2022/10/02 09:09:45;;;;;;;1999.90;999.90;;;15.90;99.90;;;;;;4995414;28;20407;-67
2022/10/02 09:12:29;;;;;;;1999.90;999.90;;;16.20;99.90;;;;;;4995693;28;20484;-67
2022/10/02 09:15:09;;;;;;;1999.90;999.90;;;16.30;99.90;;;;;;4995197;28;20420;-67
2022/10/02 09:17:48;;;;;;;1999.90;999.90;;;16.40;99.90;;;;;;4994776;28;20439;-67
2022/10/02 09:20:40;;;;;;;1999.90;999.90;;;16.30;99.90;;;;;;4996720;28;20954;-67
2022/10/02 09:23:23;;;;;;;1999.90;999.90;;;16.30;99.90;;;;;;4996180;28;20406;-67
2022/10/02 09:26:13;;;;;;;1999.90;999.90;;;16.20;99.90;;;;;;4995008;28;20527;-67
2022/10/02 09:29:18;;;;;;;1999.90;999.90;;;16.20;99.90;;;;;;4995190;28;20416;-68
2022/10/02 09:32:10;;;;;;;1999.90;999.90;;;16.10;99.90;;;;;;4995699;28;20920;-67
2022/10/02 09:35:10;;;;;;;1999.90;999.90;;;16.00;99.90;;;;;;4996017;28;20782;-67
2022/10/02 09:38:02;;;;;;;1999.90;999.90;;;16.00;99.90;;;;;;4994579;28;20421;-67
2022/10/02 09:40:43;;;;;;;1999.90;999.90;;;16.10;99.90;;;;;;4995040;28;20487;-67
2022/10/02 09:43:37;;;;;;;1999.90;999.90;;;16.00;99.90;;;;;;4994784;28;20407;-67
2022/10/02 09:46:32;;;;;;;1999.90;999.90;;;16.10;99.90;;;;;;4985250;28;20447;-67
2022/10/02 09:49:24;;;;;;;1999.90;999.90;;;16.10;99.90;;;;;;4990792;28;20420;-67
2022/10/02 09:52:21;;;;;;;1999.90;999.90;;;16.20;99.90;;;;;;4994857;28;20409;-67
2022/10/02 09:55:11;;;;;;;1999.90;999.90;;;16.10;99.90;;;;;;4978105;28;20963;-67
2022/10/02 09:58:04;;;;;;;1999.90;999.90;;;16.10;99.90;;;;;;4994080;28;20462;-67
2022/10/02 10:00:51;;;;;;;1999.90;999.90;;;16.20;99.90;;;;;;4994452;28;20407;-67
2022/10/02 10:03:37;;;;;;;1999.90;999.90;;;16.20;99.90;;;;;;4994407;28;20401;-67
2022/10/02 10:07:01;;;;;;;1999.90;999.90;;;16.20;99.90;;;;;;4993543;28;20455;-67
2022/10/02 10:09:26;;;;;;;1999.90;999.90;;;16.20;99.90;;;;;;4964634;28;20423;-68
2022/10/02 10:12:25;;;;;;;1999.90;999.90;;;16.10;99.90;;;;;;5043158;23;21379;-67
2022/10/02 10:15:31;;;;;;;1999.90;999.90;;;16.20;99.90;;;;;;5053252;28;20223;-67
2022/10/02 10:18:07;;;;;;;1999.90;999.90;;;16.20;99.90;;;;;;5052877;28;20393;-68
2022/10/02 10:20:42;;;;;;;1999.90;999.90;;;16.20;99.90;;;;;;5053124;28;20780;-68
2022/10/02 10:23:11;;;;;;;1999.90;999.90;;;16.20;99.90;;;;;;5052968;28;20926;-67
2022/10/02 10:25:49;;;;;;;1999.90;999.90;;;16.20;99.90;;;;;;5053007;28;20540;-68
2022/10/02 10:28:42;;;;;;;1999.90;999.90;;;16.30;99.90;;;;;;5052841;28;20405;-68
2022/10/02 10:31:49;;;;;;;1999.90;999.90;;;16.30;99.90;;;;;;5052919;28;20709;-68
2022/10/02 10:34:44;;;;;;;1999.90;999.90;;;16.10;99.90;;;;;;5053022;28;20516;-67
2022/10/02 10:40:25;;;;;;;1999.90;999.90;;;16.20;99.90;;;;;;5052938;28;20910;-68
2022/10/02 10:43:21;;;;;;;1999.90;999.90;;;16.10;99.90;;;;;;5052758;28;20410;-68
2022/10/02 10:46:01;;;;;;;1999.90;999.90;;;16.20;99.90;;;;;;5053154;28;20771;-68
2022/10/02 10:48:33;;;;;;;1999.90;999.90;;;16.20;99.90;;;;;;5052437;28;20907;-68
2022/10/02 10:51:15;;;;;;;1999.90;999.90;;;16.20;99.90;;;;;;5052602;28;20398;-68
2022/10/02 10:53:56;;;;;;;1999.90;999.90;;;16.30;99.90;;;;;;5052294;28;20472;-68
2022/10/02 10:56:38;;;;;;;1999.90;999.90;;;16.40;99.90;;;;;;5052379;28;20462;-68
2022/10/02 10:59:12;;;;;;;1999.90;999.90;;;16.60;99.90;;;;;;5052556;28;20409;-68
2022/10/02 11:01:44;;;;;;;1999.90;999.90;;;16.70;99.90;;;;;;5052458;28;20495;-68
2022/10/02 11:04:25;;;;;;;1999.90;999.90;;;16.70;99.90;;;;;;5052401;28;20861;-68
2022/10/02 11:07:09;;;;;;;1999.90;999.90;;;16.80;99.90;;;;;;5051631;28;20408;-68
2022/10/02 11:09:53;;;;;;;1999.90;999.90;;;16.80;99.90;;;;;;5052318;28;20424;-68
2022/10/02 11:12:50;;;;;;;1999.90;999.90;;;16.80;99.90;;;;;;5052087;28;20447;-68
2022/10/02 11:15:49;;;;;;;1999.90;999.90;;;16.90;99.90;;;;;;5052407;28;20821;-68
2022/10/02 11:18:33;;;;;;;1999.90;999.90;;;17.00;99.90;;;;;;5052032;28;20413;-68
2022/10/02 11:21:27;;;;;;;1999.90;999.90;;;17.00;99.90;;;;;;5052222;28;20400;-68
2022/10/02 11:24:12;;;;;;;1999.90;999.90;;;17.10;99.90;;;;;;5052126;28;20437;-68
2022/10/02 11:26:57;;;;;;;1999.90;999.90;;;17.00;99.90;;;;;;5051918;28;20436;-68
2022/10/02 11:30:04;;;;;;;1999.90;999.90;;;16.90;99.90;;;;;;5051947;28;20403;-68
2022/10/02 11:33:06;;;;;;;1999.90;999.90;;;16.80;99.90;;;;;;5020564;28;20443;-68
2022/10/02 11:35:57;;;;;;;1999.90;999.90;;;16.80;99.90;;;;;;5032120;28;20434;-68
2022/10/02 11:38:42;;;;;;;1999.90;999.90;;;16.80;99.90;;;;;;5029909;28;20411;-67
2022/10/02 11:41:28;;;;;;;1999.90;999.90;;;16.80;99.90;;;;;;5031497;28;20405;-67
2022/10/02 11:44:09;;;;;;;1999.90;999.90;;;16.70;99.90;;;;;;5030988;28;20410;-68
2022/10/02 11:47:00;;;;;;;1999.90;999.90;;;16.70;99.90;;;;;;5029807;28;20511;-67
2022/10/02 11:49:38;;;;;;;1999.90;999.90;;;16.80;99.90;;;;;;5031393;28;20408;-68
2022/10/02 11:52:52;;;;;;;1999.90;999.90;;;16.80;99.90;;;;;;5031486;28;20467;-67
2022/10/02 11:55:39;;;;;;;1999.90;999.90;;;16.90;99.90;;;;;;5016380;28;20469;-68
2022/10/02 11:58:20;;;;;;;1999.90;999.90;;;17.00;99.90;;;;;;5031641;28;20512;-68
2022/10/02 12:01:15;;;;;;;1999.90;999.90;;;17.20;99.90;;;;;;5032721;28;20407;-67
2022/10/02 12:03:49;;;;;;;1999.90;999.90;;;17.40;99.90;;;;;;5030978;28;20423;-69
2022/10/02 12:06:27;;;;;;;1999.90;999.90;;;17.60;99.90;;;;;;5033578;28;20915;-68
2022/10/02 12:09:26;;;;;;;1999.90;999.90;;;17.80;99.90;;;;;;5032623;28;20448;-68
2022/10/02 12:12:21;;;;;;;1999.90;999.90;;;18.10;99.90;;;;;;5033069;28;20488;-67
2022/10/02 12:15:08;;;;;;;1999.90;999.90;;;18.20;99.90;;;;;;5032296;28;20494;-67
2022/10/02 12:17:52;;;;;;;1999.90;999.90;;;18.10;99.90;;;;;;5032560;28;20422;-67
2022/10/02 12:27:08;;;;;;;1999.90;999.90;;;17.60;99.90;;;;;;5035205;28;20396;-68
2022/10/02 12:29:46;;;;;;;1999.90;999.90;;;17.60;99.90;;;;;;5033774;28;20409;-68
2022/10/02 12:32:37;;;;;;;1999.90;999.90;;;17.70;99.90;;;;;;5034640;28;20420;-68
2022/10/02 12:35:23;;;;;;;1999.90;999.90;;;17.60;99.90;;;;;;5035907;28;20408;-67
2022/10/02 12:37:55;;;;;;;1999.90;999.90;;;17.50;99.90;;;;;;5035461;28;20454;-68
2022/10/02 12:40:42;;;;;;;1999.90;999.90;;;17.30;99.90;;;;;;5035859;28;20398;-67
2022/10/02 12:43:25;;;;;;;1999.90;999.90;;;17.20;99.90;;;;;;5035708;28;20802;-67
2022/10/02 12:46:28;;;;;;;1999.90;999.90;;;17.20;99.90;;;;;;5034726;28;20414;-67
2022/10/02 12:49:11;;;;;;;1999.90;999.90;;;17.20;99.90;;;;;;5034193;28;20405;-67
2022/10/02 12:52:11;;;;;;;1999.90;999.90;;;17.20;99.90;;;;;;5031841;28;20774;-69
2022/10/02 12:54:51;;;;;;;1999.90;999.90;;;17.10;99.90;;;;;;5018359;28;20481;-69
2022/10/02 12:58:11;;;;;;;1999.90;999.90;;;17.00;99.90;;;;;;5034573;28;20829;-69
2022/10/02 13:01:14;;;;;;;1999.90;999.90;;;17.00;99.90;;;;;;4991948;28;20516;-69
2022/10/02 13:03:58;;;;;;;1999.90;999.90;;;16.90;99.90;;;;;;5034124;28;20456;-68
2022/10/02 13:06:45;;;;;;;1999.90;999.90;;;17.00;99.90;;;;;;5034025;28;20861;-67
2022/10/02 13:09:17;;;;;;;1999.90;999.90;;;16.90;99.90;;;;;;5033580;28;20890;-70
2022/10/02 13:11:52;;;;;;;1999.90;999.90;;;17.00;99.90;;;;;;5034022;28;20414;-69
2022/10/02 13:14:35;;;;;;;1999.90;999.90;;;17.10;99.90;;;;;;5034149;28;20600;-71
2022/10/02 13:17:16;;;;;;;1999.90;999.90;;;17.20;99.90;;;;;;5033123;28;20401;-70
2022/10/02 13:19:54;;;;;;;1999.90;999.90;;;17.30;99.90;;;;;;5033963;28;20401;-70